Burton upon Stather, United Kingdom
Current Conditions -  °F | °C
As of 12:50 AM on Sunday 23 Nov 2014 (Local Time) from EGNJ Reporting Station
Broken Clouds Broken Clouds  
Wind Chill: 48°   Ceiling: 4200
Heat Index: 48°   Visibility: 6mi
Dew Point: 48°   Wind: 3mph
Humidity: 100%   Direction: 210°SSW
Pressure: 29.97"   Gusts: NA
Location:  53.65°N, 0.68°W
Report Text: EGNJ 230050Z AUTO 21003KT 9999 BKN042/// 09/09 Q1015
Loading
Personal Weather Stations






























Interactive Weather Map New forecast layout! Learn more

10-Day Weather Forecast

Advertisements
Track Severe Weather on mobile